Latest Weather Observations for Tarcoola

IDS60801

Issued at 10:05 pm CST Wednesday 23 April 2014 (issued every 30 minutes, with the page automatically refreshed every 10 minutes)

About weather observations | Map of weather stations | Latest weather observations for SA | Other Formats
Station Details ID: 016098 Name: TARCOOLA AERO Lat: -30.71 Lon: 134.58 Height: 123.0 m
Data from the previous 72 hours. | See also: Recent months at Tarcoola
Date/Time
CST
Temp
°C
App
Temp
°C
Dew
Point
Rel
Hum
%
Delta-T
°C
Wind Press
QNH
hPa
Press
MSL
hPa
Rain
since 9 am
mm
Dir
 
Spd
km/h
Gust
km/h
Spd
kts
Gust
kts
23/10:00pm 17.4 13.3 6.3 48 5.5 SSW 17 24 9 13 1018.3 - 0.0
23/09:30pm 16.6 13.4 4.9 46 5.6 SSW 11 15 6 8 1018.2 - 0.0
23/09:00pm 14.5 13.2 3.9 49 4.9 CALM 0 0 0 0 1017.9 1017.6 0.0
23/08:30pm 15.8 14.5 4.2 46 5.4 CALM 0 0 0 0 1017.6 - 0.0
23/08:00pm 16.5 15.3 4.5 45 5.7 CALM 0 0 0 0 1017.4 - 0.0
23/07:30pm 17.2 14.7 3.8 41 6.3 WSW 6 7 3 4 1017.2 - 0.0
23/07:00pm 19.0 16.3 3.6 36 7.3 SW 7 9 4 5 1016.8 - 0.0
23/06:30pm 20.4 17.3 3.6 33 8.0 SW 9 11 5 6 1016.3 - 0.0
23/06:00pm 22.3 19.3 3.9 30 9.0 WSW 9 13 5 7 1016.0 1015.7 0.0
23/05:30pm 24.0 20.2 3.9 27 9.9 SW 13 19 7 10 1015.7 - 0.0
23/05:00pm 24.4 20.6 3.7 26 10.2 WSW 13 19 7 10 1015.6 - 0.0
23/04:30pm 24.7 19.6 3.9 26 10.3 SW 20 32 11 17 1015.7 - 0.0
23/04:00pm 24.7 19.8 3.9 26 10.3 SSW 19 24 10 13 1015.6 - 0.0
23/03:30pm 24.9 21.2 4.6 27 10.2 SSW 13 24 7 13 1015.4 - 0.0
23/03:00pm 24.8 20.4 4.5 27 10.2 SW 17 28 9 15 1015.5 1015.2 0.0
23/02:30pm 24.4 20.4 4.7 28 9.9 W 15 26 8 14 1015.5 - 0.0
23/02:00pm 24.4 19.0 4.7 28 9.9 SW 22 33 12 18 1015.8 - 0.0
23/01:30pm 24.1 19.2 5.0 29 9.6 W 20 26 11 14 1016.4 - 0.0
23/01:00pm 23.8 18.4 4.7 29 9.6 SW 22 33 12 18 1016.9 - 0.0
23/12:30pm 23.0 18.4 5.4 32 8.9 W 19 26 10 14 1017.6 - 0.0
23/12:00pm 22.2 18.6 6.8 37 7.9 WSW 15 26 8 14 1018.0 1017.7 0.0
23/11:30am 22.0 19.3 7.4 39 7.6 WNW 11 20 6 11 1018.4 - 0.0
23/11:00am 21.0 19.1 7.6 42 7.0 NW 7 13 4 7 1018.9 - 0.0
23/10:30am 20.3 18.6 7.7 44 6.5 N 6 9 3 5 1019.1 - 0.0
23/10:00am 19.1 17.0 8.4 50 5.6 E 9 13 5 7 1019.3 - 0.0
23/09:30am 17.6 16.5 8.5 55 4.7 E 4 7 2 4 1019.4 - 0.0
23/09:00am 15.7 15.3 8.2 61 3.8 CALM 0 6 0 3 1019.6 1019.4 0.0
23/08:30am 13.6 12.0 8.2 70 2.7 SW 6 7 3 4 1019.6 - 0.0
23/08:00am 11.6 9.8 7.9 78 1.8 SW 7 9 4 5 1019.2 - 0.0
23/07:30am 9.6 7.6 7.0 84 1.2 SW 7 9 4 5 1018.9 - 0.0
23/07:00am 8.6 6.0 6.2 85 1.1 WSW 9 11 5 6 1018.6 - 0.0
23/06:30am 8.8 6.6 6.1 83 1.2 WSW 7 9 4 5 1018.5 - 0.0
23/06:00am 9.2 7.6 6.3 82 1.3 WSW 4 7 2 4 1018.4 1018.2 0.0
23/05:30am 9.7 7.7 6.4 80 1.5 SW 6 7 3 4 1018.3 - 0.0
23/05:00am 9.8 7.7 6.5 80 1.5 SW 7 7 4 4 1018.2 - 0.0
23/04:30am 10.5 8.5 7.0 79 1.7 SW 7 9 4 5 1018.2 - 0.0
23/04:00am 10.8 8.4 6.9 77 1.9 WSW 9 9 5 5 1018.2 - 0.0
23/03:30am 11.4 9.0 7.1 75 2.1 SW 9 13 5 7 1018.4 - 0.0
23/03:00am 11.9 9.9 7.2 73 2.3 WSW 7 9 4 5 1018.4 1018.2 0.0
23/02:30am 12.4 10.1 7.3 71 2.5 SW 9 13 5 7 1018.4 - 0.0
23/02:00am 13.5 10.8 7.5 67 3.0 SSW 11 13 6 7 1018.6 - 0.0
23/01:30am 13.8 11.1 7.3 65 3.2 SSW 11 15 6 8 1018.9 - 0.0
23/01:00am 14.2 11.1 7.3 63 3.4 SSW 13 17 7 9 1019.1 - 0.0
23/12:30am 14.9 11.4 7.2 60 3.8 SSW 15 20 8 11 1019.0 - 0.0
23/12:00am 15.6 12.1 7.1 57 4.2 SSW 15 19 8 10 1019.2 1019.0 0.0
 
Date/Time
CST
Temp
°C
App
Temp
°C
Dew
Point
Rel
Hum
%
Delta-T
°C
Wind Press
QNH
hPa
Press
MSL
hPa
Rain
since 9 am
mm
Dir
 
Spd
km/h
Gust
km/h
Spd
kts
Gust
kts
22/11:30pm 15.9 12.0 7.1 56 4.4 SSW 17 20 9 11 1019.3 - 0.0
22/11:00pm 16.5 12.7 7.4 55 4.6 SSW 17 22 9 12 1019.4 - 0.0
22/10:30pm 17.0 13.2 7.6 54 4.8 SSW 17 24 9 13 1019.3 - 0.0
22/10:00pm 17.2 14.2 7.8 54 4.8 SSW 13 20 7 11 1019.1 - 0.0
22/09:30pm 17.6 14.3 7.9 53 5.0 SSW 15 17 8 9 1018.9 - 0.0
22/09:00pm 18.4 14.6 7.5 49 5.5 SSW 17 24 9 13 1018.7 1018.5 0.0
22/08:30pm 19.3 16.3 6.1 42 6.6 S 11 13 6 7 1018.3 - 0.0
22/08:00pm 20.4 17.0 6.0 39 7.2 S 13 17 7 9 1018.0 - 0.0
22/07:30pm 20.9 17.5 6.1 38 7.5 S 13 17 7 9 1017.8 - 0.0
22/07:00pm 21.4 18.0 6.1 37 7.7 S 13 17 7 9 1017.4 - 0.0
22/06:30pm 22.3 18.6 6.1 35 8.2 S 15 20 8 11 1017.1 - 0.0
22/06:00pm 23.0 18.5 5.9 33 8.7 S 19 24 10 13 1016.7 1016.4 0.0
22/05:30pm 23.9 19.4 6.2 32 9.1 S 19 28 10 15 1016.4 - 0.0
22/05:00pm 24.4 20.0 6.6 32 9.3 S 19 26 10 14 1016.2 - 0.0
22/04:30pm 24.6 20.1 6.8 32 9.3 SSW 20 28 11 15 1016.2 - 0.0
22/04:00pm 25.0 20.8 7.6 33 9.2 SSW 19 28 10 15 1016.2 - 0.0
22/03:30pm 25.1 21.1 8.1 34 9.1 S 19 28 10 15 1016.2 - 0.0
22/03:00pm 25.1 21.0 8.6 35 8.9 S 20 26 11 14 1016.1 1015.8 0.0
22/02:30pm 23.9 20.1 9.1 39 8.0 S 19 28 10 15 1016.1 - 0.0
22/02:00pm 23.6 20.4 9.9 42 7.5 S 17 28 9 15 1016.4 - 0.0
22/01:30pm 23.1 19.8 11.5 48 6.5 S 20 32 11 17 1016.8 - 0.0
22/01:00pm 22.0 18.7 11.7 52 5.8 SE 20 33 11 18 1017.1 - 0.0
22/12:30pm 21.9 18.9 12.5 55 5.4 SE 20 32 11 17 1017.6 - 0.0
22/12:00pm 21.0 18.9 12.4 58 4.9 S 15 20 8 11 1017.9 1017.6 0.0
22/11:30am 20.3 18.2 12.5 61 4.4 SSE 15 22 8 12 1018.2 - 0.0
22/11:00am 19.3 16.9 12.8 66 3.7 S 17 24 9 13 1018.4 - 0.0
22/10:30am 18.5 15.7 12.7 69 3.3 S 19 26 10 14 1018.5 - 0.0
22/10:00am 18.8 15.5 12.8 68 3.4 SSW 22 28 12 15 1018.4 - 0.0
22/09:30am 18.5 15.1 12.5 68 3.4 SSW 22 28 12 15 1018.2 - 0.0
22/09:00am 18.4 15.3 13.3 72 2.9 SSW 22 28 12 15 1018.1 1017.8 0.0
22/08:30am 18.4 16.9 14.1 76 2.5 S 15 22 8 12 1017.7 - 0.0
22/08:00am 17.9 16.3 13.8 77 2.3 S 15 20 8 11 1017.3 - 0.0
22/07:30am 17.5 15.8 13.6 78 2.2 S 15 22 8 12 1017.1 - 0.0
22/07:00am 17.4 15.0 13.9 80 2.0 S 19 24 10 13 1016.9 - 0.0
22/06:30am 17.2 15.7 14.1 82 1.8 S 15 20 8 11 1016.4 - 0.0
22/06:00am 16.9 15.4 14.2 84 1.5 SSW 15 22 8 12 1016.1 1015.8 0.0
22/05:30am 16.5 15.8 14.3 87 1.3 SSW 11 15 6 8 1015.9 - 0.0
22/05:00am 14.8 14.2 13.5 92 0.7 SW 9 11 5 6 1015.6 - 0.0
22/04:30am 14.8 14.6 13.0 89 1.0 SW 6 9 3 5 1015.3 - 0.0
22/04:00am 15.8 14.9 13.6 87 1.2 SW 11 20 6 11 1015.1 - 0.0
22/03:30am 15.6 14.7 13.6 88 1.1 WSW 11 15 6 8 1015.1 - 0.0
22/03:00am 16.2 15.4 13.9 86 1.3 SW 11 13 6 7 1015.1 1014.8 0.0
22/02:30am 16.8 15.3 14.3 85 1.4 SW 15 20 8 11 1015.0 - 0.0
22/02:00am 17.2 14.8 13.9 81 1.9 SW 19 24 10 13 1015.0 - 0.0
22/01:30am 17.8 14.6 13.1 74 2.7 SW 22 30 12 16 1014.6 - 0.0
22/01:00am 18.2 15.5 10.3 60 4.2 SW 15 19 8 10 1014.6 - 0.0
22/12:30am 19.7 17.5 7.8 46 6.2 SW 9 15 5 8 1014.1 - 0.0
22/12:00am 20.6 16.8 3.8 33 8.1 WSW 13 15 7 8 1014.0 1013.7 0.0
 
Date/Time
CST
Temp
°C
App
Temp
°C
Dew
Point
Rel
Hum
%
Delta-T
°C
Wind Press
QNH
hPa
Press
MSL
hPa
Rain
since 9 am
mm
Dir
 
Spd
km/h
Gust
km/h
Spd
kts
Gust
kts
21/11:30pm 22.7 19.0 4.2 30 9.1 SW 13 20 7 11 1013.7 - 0.0
21/11:00pm 22.2 18.0 3.8 30 9.0 N 15 19 8 10 1013.6 - 0.0
21/10:30pm 21.8 18.1 4.4 32 8.5 N 13 17 7 9 1013.6 - 0.0
21/10:00pm 22.4 18.3 4.5 31 8.8 N 15 17 8 9 1013.7 - 0.0
21/09:30pm 22.9 18.4 4.4 30 9.2 NNE 17 20 9 11 1013.7 - 0.0
21/09:00pm 23.1 19.0 4.1 29 9.4 NNE 15 19 8 10 1013.6 1013.3 0.0
21/08:30pm 22.8 18.7 4.3 30 9.1 NNE 15 19 8 10 1013.5 - 0.0
21/08:00pm 22.4 18.7 4.5 31 8.8 NNE 13 15 7 8 1013.5 - 0.0
21/07:30pm 23.1 18.9 3.6 28 9.5 NNE 15 17 8 9 1013.2 - 0.0
21/07:00pm 23.7 20.1 3.1 26 10.0 N 11 11 6 6 1013.0 - 0.0
21/06:30pm 27.0 22.5 2.1 20 12.1 N 15 17 8 9 1012.8 - 0.0
21/06:00pm 28.4 23.8 1.8 18 13.0 N 15 20 8 11 1012.6 1012.3 0.0
21/05:30pm 30.3 24.8 1.7 16 14.2 N 20 28 11 15 1012.5 - 0.0
21/05:00pm 30.2 24.7 1.6 16 14.1 N 20 30 11 16 1012.3 - 0.0
21/04:30pm 30.8 24.8 1.2 15 14.6 NNW 22 28 12 15 1012.3 - 0.0
21/04:00pm 30.8 24.8 1.2 15 14.6 NW 22 30 12 16 1012.6 - 0.0
21/03:30pm 30.9 23.8 1.3 15 14.6 N 28 37 15 20 1012.6 - 0.0
21/03:00pm 31.2 24.7 2.4 16 14.5 NNW 26 41 14 22 1012.8 1012.5 0.0
21/02:38pm 31.7 24.8 2.8 16 14.7 NW 28 46 15 25 1012.7 - 0.0
21/02:30pm 31.4 24.0 1.7 15 14.8 NNW 30 41 16 22 1012.9 - 0.0
21/02:00pm 30.7 23.5 2.9 17 14.1 NNW 30 41 16 22 1013.2 - 0.0
21/01:30pm 30.7 23.1 2.9 17 14.1 N 32 43 17 23 1013.6 - 0.0
21/01:05pm 30.9 23.5 3.8 18 14.0 N 32 50 17 27 1013.7 - 0.0
21/01:00pm 30.2 22.0 2.5 17 13.9 N 35 50 19 27 1013.8 - 0.0
21/12:30pm 30.6 22.4 2.8 17 14.1 N 35 50 19 27 1014.3 - 0.0
21/12:17pm 31.0 22.9 3.1 17 14.2 N 35 54 19 29 1014.5 - 0.0
21/12:00pm 30.8 22.8 3.8 18 13.9 N 35 46 19 25 1014.9 1014.6 0.0
21/11:30am 29.8 21.0 3.7 19 13.3 N 39 57 21 31 1015.4 - 0.0
21/11:23am 29.6 21.5 3.5 19 13.3 N 35 57 19 31 1015.4 - 0.0
21/11:00am 29.0 20.8 4.5 21 12.6 N 37 52 20 28 1015.8 - 0.0
21/10:30am 27.6 20.0 4.0 22 12.0 N 33 46 18 25 1016.0 - 0.0
21/10:00am 27.1 21.0 4.8 24 11.4 N 26 35 14 19 1016.3 - 0.0
21/09:30am 25.3 18.4 4.4 26 10.5 N 30 46 16 25 1016.3 - 0.0
21/09:28am 25.4 18.9 4.5 26 10.5 N 28 46 15 25 1016.4 - 0.0
21/09:00am 24.7 19.5 5.5 29 9.8 N 22 28 12 15 1016.5 1016.2 0.0
21/08:30am 22.8 17.9 5.3 32 8.8 N 20 30 11 16 1016.4 - 0.0
21/08:00am 21.6 16.9 5.1 34 8.2 N 19 26 10 14 1016.4 - 0.0
21/07:30am 20.8 16.2 5.6 37 7.6 N 19 26 10 14 1016.2 - 0.0
21/07:00am 18.6 15.2 5.8 43 6.3 N 13 20 7 11 1016.1 - 0.0
21/06:30am 18.8 15.0 6.0 43 6.4 N 15 19 8 10 1015.7 - 0.0
21/06:00am 19.2 15.1 6.0 42 6.6 NNE 17 20 9 11 1015.5 1015.2 0.0
21/05:30am 18.9 15.6 6.4 44 6.3 NNE 13 17 7 9 1015.3 - 0.0
21/05:00am 19.6 15.8 6.0 41 6.8 NNE 15 17 8 9 1015.3 - 0.0
21/04:30am 20.2 16.5 6.2 40 7.0 NNE 15 20 8 11 1015.1 - 0.0
21/04:00am 21.2 17.3 5.5 36 7.8 N 15 20 8 11 1015.0 - 0.0
21/03:30am 21.9 17.2 5.3 34 8.3 N 19 26 10 14 1015.2 - 0.0
21/03:00am 21.9 17.6 5.3 34 8.3 N 17 20 9 11 1015.4 1015.1 0.0
21/02:30am 22.7 18.0 5.2 32 8.8 N 19 24 10 13 1015.3 - 0.0
21/02:00am 21.9 17.6 5.3 34 8.3 N 17 22 9 12 1015.4 - 0.0
21/01:30am 22.0 18.0 5.0 33 8.5 N 15 20 8 11 1015.3 - 0.0
21/01:00am 22.8 17.9 5.3 32 8.8 N 20 28 11 15 1015.4 - 0.0
21/12:30am 21.9 17.8 6.2 36 8.0 N 17 20 9 11 1015.3 - 0.0
21/12:00am 19.7 16.3 5.7 40 6.9 NNE 13 15 7 8 1015.3 1015.0 0.0
 
Date/Time
CST
Temp
°C
App
Temp
°C
Dew
Point
Rel
Hum
%
Delta-T
°C
Wind Press
QNH
hPa
Press
MSL
hPa
Rain
since 9 am
mm
Dir
 
Spd
km/h
Gust
km/h
Spd
kts
Gust
kts
20/11:30pm 20.1 16.7 5.7 39 7.2 NNE 13 15 7 8 1015.5 - 0.0
20/11:00pm 20.2 16.4 5.8 39 7.2 NNE 15 17 8 9 1015.8 - 0.0
20/10:30pm 19.9 16.5 5.9 40 7.0 NNE 13 15 7 8 1015.9 - 0.0

Other Formats:

Comma delimited format used in spreadsheet applications
http://www.bom.gov.au/fwo/IDS60801/IDS60801.94655.axf

JavaScript Object Notation format (JSON) in row-major order
http://www.bom.gov.au/fwo/IDS60801/IDS60801.94655.json